sensor_id;sensor_type;location;lat;lon;timestamp;P1;durP1;ratioP1;P2;durP2;ratioP2
58978;SDS011;44763;50.464;30.612;2023-05-29T00:01:27;3.80;;;2.80;;
58978;SDS011;44763;50.464;30.612;2023-05-29T00:03:54;4.40;;;3.20;;
58978;SDS011;44763;50.464;30.612;2023-05-29T00:06:22;5.30;;;2.40;;
58978;SDS011;44763;50.464;30.612;2023-05-29T00:08:50;3.70;;;2.70;;
58978;SDS011;44763;50.464;30.612;2023-05-29T00:11:18;2.40;;;2.10;;
58978;SDS011;44763;50.464;30.612;2023-05-29T00:13:45;3.80;;;3.00;;
58978;SDS011;44763;50.464;30.612;2023-05-29T00:16:12;3.00;;;2.50;;
58978;SDS011;44763;50.464;30.612;2023-05-29T00:18:40;3.10;;;2.80;;
58978;SDS011;44763;50.464;30.612;2023-05-29T00:21:13;4.60;;;2.50;;
58978;SDS011;44763;50.464;30.612;2023-05-29T00:23:41;12.00;;;3.30;;
58978;SDS011;44763;50.464;30.612;2023-05-29T00:26:10;3.30;;;2.80;;
58978;SDS011;44763;50.464;30.612;2023-05-29T00:28:39;2.80;;;2.60;;
58978;SDS011;44763;50.464;30.612;2023-05-29T00:31:07;4.30;;;1.90;;
58978;SDS011;44763;50.464;30.612;2023-05-29T00:33:34;2.40;;;2.10;;
58978;SDS011;44763;50.464;30.612;2023-05-29T00:36:02;3.70;;;2.90;;
58978;SDS011;44763;50.464;30.612;2023-05-29T00:38:29;5.30;;;2.30;;
58978;SDS011;44763;50.464;30.612;2023-05-29T00:40:56;3.60;;;2.70;;
58978;SDS011;44763;50.464;30.612;2023-05-29T00:43:25;5.20;;;3.00;;
58978;SDS011;44763;50.464;30.612;2023-05-29T00:45:54;3.90;;;2.40;;
58978;SDS011;44763;50.464;30.612;2023-05-29T00:48:22;6.10;;;2.30;;
58978;SDS011;44763;50.464;30.612;2023-05-29T00:50:50;5.50;;;2.40;;
58978;SDS011;44763;50.464;30.612;2023-05-29T00:53:18;5.70;;;2.50;;
58978;SDS011;44763;50.464;30.612;2023-05-29T00:55:46;3.40;;;2.40;;
58978;SDS011;44763;50.464;30.612;2023-05-29T00:58:14;2.60;;;2.30;;
58978;SDS011;44763;50.464;30.612;2023-05-29T01:00:41;3.40;;;2.90;;
58978;SDS011;44763;50.464;30.612;2023-05-29T01:03:10;4.20;;;2.90;;
58978;SDS011;44763;50.464;30.612;2023-05-29T01:05:42;7.30;;;3.60;;
58978;SDS011;44763;50.464;30.612;2023-05-29T01:08:10;3.80;;;2.60;;
58978;SDS011;44763;50.464;30.612;2023-05-29T01:10:37;4.40;;;2.70;;
58978;SDS011;44763;50.464;30.612;2023-05-29T01:13:16;5.70;;;3.70;;
58978;SDS011;44763;50.464;30.612;2023-05-29T01:15:58;2.40;;;2.00;;
58978;SDS011;44763;50.464;30.612;2023-05-29T01:18:47;2.50;;;2.30;;
58978;SDS011;44763;50.464;30.612;2023-05-29T01:24:26;5.10;;;2.10;;
58978;SDS011;44763;50.464;30.612;2023-05-29T01:27:04;3.40;;;3.10;;
58978;SDS011;44763;50.464;30.612;2023-05-29T01:29:37;4.70;;;2.80;;
58978;SDS011;44763;50.464;30.612;2023-05-29T01:32:06;6.60;;;3.40;;
58978;SDS011;44763;50.464;30.612;2023-05-29T01:34:34;5.60;;;2.60;;
58978;SDS011;44763;50.464;30.612;2023-05-29T01:37:02;4.10;;;3.10;;
58978;SDS011;44763;50.464;30.612;2023-05-29T01:39:31;6.00;;;3.10;;
58978;SDS011;44763;50.464;30.612;2023-05-29T01:42:00;5.90;;;3.10;;
58978;SDS011;44763;50.464;30.612;2023-05-29T01:44:28;3.80;;;2.20;;
58978;SDS011;44763;50.464;30.612;2023-05-29T01:46:56;3.30;;;3.00;;
58978;SDS011;44763;50.464;30.612;2023-05-29T01:49:26;3.60;;;3.00;;
58978;SDS011;44763;50.464;30.612;2023-05-29T01:51:56;3.20;;;2.90;;
58978;SDS011;44763;50.464;30.612;2023-05-29T01:54:23;5.60;;;3.00;;
58978;SDS011;44763;50.464;30.612;2023-05-29T01:56:51;4.50;;;3.00;;
58978;SDS011;44763;50.464;30.612;2023-05-29T01:59:18;4.50;;;2.70;;
58978;SDS011;44763;50.464;30.612;2023-05-29T02:01:47;2.30;;;2.10;;
58978;SDS011;44763;50.464;30.612;2023-05-29T02:04:15;4.40;;;3.20;;
58978;SDS011;44763;50.464;30.612;2023-05-29T02:06:42;2.90;;;2.20;;
58978;SDS011;44763;50.464;30.612;2023-05-29T02:09:10;5.10;;;3.50;;
58978;SDS011;44763;50.464;30.612;2023-05-29T02:11:37;3.90;;;2.20;;
58978;SDS011;44763;50.464;30.612;2023-05-29T02:14:05;5.80;;;3.30;;
58978;SDS011;44763;50.464;30.612;2023-05-29T02:16:32;4.30;;;2.50;;
58978;SDS011;44763;50.464;30.612;2023-05-29T02:19:01;4.40;;;2.40;;
58978;SDS011;44763;50.464;30.612;2023-05-29T02:21:29;4.70;;;2.50;;
58978;SDS011;44763;50.464;30.612;2023-05-29T02:23:56;8.00;;;2.40;;
58978;SDS011;44763;50.464;30.612;2023-05-29T02:26:23;3.00;;;2.70;;
58978;SDS011;44763;50.464;30.612;2023-05-29T02:28:51;2.70;;;2.50;;
58978;SDS011;44763;50.464;30.612;2023-05-29T02:31:20;2.40;;;2.20;;
58978;SDS011;44763;50.464;30.612;2023-05-29T02:33:47;3.30;;;2.70;;
58978;SDS011;44763;50.464;30.612;2023-05-29T02:36:15;3.10;;;2.80;;
58978;SDS011;44763;50.464;30.612;2023-05-29T02:38:43;3.20;;;2.90;;
58978;SDS011;44763;50.464;30.612;2023-05-29T02:41:11;5.40;;;1.90;;
58978;SDS011;44763;50.464;30.612;2023-05-29T02:43:38;10.80;;;2.60;;
58978;SDS011;44763;50.464;30.612;2023-05-29T02:46:06;3.60;;;2.60;;
58978;SDS011;44763;50.464;30.612;2023-05-29T02:48:33;4.80;;;2.80;;
58978;SDS011;44763;50.464;30.612;2023-05-29T02:51:01;4.90;;;2.40;;
58978;SDS011;44763;50.464;30.612;2023-05-29T02:53:28;2.70;;;2.40;;
58978;SDS011;44763;50.464;30.612;2023-05-29T02:55:55;2.20;;;1.80;;
58978;SDS011;44763;50.464;30.612;2023-05-29T02:58:22;4.30;;;2.80;;
58978;SDS011;44763;50.464;30.612;2023-05-29T03:00:50;2.80;;;2.30;;
58978;SDS011;44763;50.464;30.612;2023-05-29T03:03:17;3.80;;;2.50;;
58978;SDS011;44763;50.464;30.612;2023-05-29T03:05:45;2.40;;;2.00;;
58978;SDS011;44763;50.464;30.612;2023-05-29T03:08:14;1.80;;;1.70;;
58978;SDS011;44763;50.464;30.612;2023-05-29T03:10:42;3.30;;;2.30;;
58978;SDS011;44763;50.464;30.612;2023-05-29T03:13:10;3.70;;;2.30;;
58978;SDS011;44763;50.464;30.612;2023-05-29T03:15:40;2.70;;;2.40;;
58978;SDS011;44763;50.464;30.612;2023-05-29T03:18:07;2.70;;;2.30;;
58978;SDS011;44763;50.464;30.612;2023-05-29T03:20:35;4.60;;;2.60;;
58978;SDS011;44763;50.464;30.612;2023-05-29T03:23:03;4.70;;;2.50;;
58978;SDS011;44763;50.464;30.612;2023-05-29T03:25:32;6.40;;;2.60;;
58978;SDS011;44763;50.464;30.612;2023-05-29T03:27:59;4.00;;;2.10;;
58978;SDS011;44763;50.464;30.612;2023-05-29T03:30:27;3.70;;;2.30;;
58978;SDS011;44763;50.464;30.612;2023-05-29T03:32:54;5.30;;;2.50;;
58978;SDS011;44763;50.464;30.612;2023-05-29T03:35:29;5.80;;;2.20;;
58978;SDS011;44763;50.464;30.612;2023-05-29T03:37:57;3.20;;;2.10;;
58978;SDS011;44763;50.464;30.612;2023-05-29T03:40:24;2.30;;;2.00;;
58978;SDS011;44763;50.464;30.612;2023-05-29T03:42:52;2.50;;;2.20;;
58978;SDS011;44763;50.464;30.612;2023-05-29T03:45:19;2.40;;;2.20;;
58978;SDS011;44763;50.464;30.612;2023-05-29T03:47:47;4.00;;;2.60;;
58978;SDS011;44763;50.464;30.612;2023-05-29T03:50:14;2.70;;;2.30;;
58978;SDS011;44763;50.464;30.612;2023-05-29T03:52:43;2.70;;;2.40;;
58978;SDS011;44763;50.464;30.612;2023-05-29T03:55:10;2.20;;;2.10;;
58978;SDS011;44763;50.464;30.612;2023-05-29T03:57:40;4.10;;;1.90;;
58978;SDS011;44763;50.464;30.612;2023-05-29T04:00:08;2.70;;;1.90;;
58978;SDS011;44763;50.464;30.612;2023-05-29T04:02:39;4.90;;;2.20;;
58978;SDS011;44763;50.464;30.612;2023-05-29T04:05:08;3.90;;;2.30;;
58978;SDS011;44763;50.464;30.612;2023-05-29T04:07:41;4.20;;;2.10;;
58978;SDS011;44763;50.464;30.612;2023-05-29T04:10:09;2.00;;;1.30;;
58978;SDS011;44763;50.464;30.612;2023-05-29T04:12:36;1.90;;;1.70;;
58978;SDS011;44763;50.464;30.612;2023-05-29T04:15:04;5.90;;;2.10;;
58978;SDS011;44763;50.464;30.612;2023-05-29T04:17:32;2.50;;;1.60;;
58978;SDS011;44763;50.464;30.612;2023-05-29T04:19:59;6.20;;;1.70;;
58978;SDS011;44763;50.464;30.612;2023-05-29T04:22:33;2.60;;;1.50;;
58978;SDS011;44763;50.464;30.612;2023-05-29T04:25:01;3.20;;;1.70;;
58978;SDS011;44763;50.464;30.612;2023-05-29T04:27:30;4.10;;;1.60;;
58978;SDS011;44763;50.464;30.612;2023-05-29T04:30:07;3.40;;;1.90;;
58978;SDS011;44763;50.464;30.612;2023-05-29T04:32:39;2.60;;;1.70;;
58978;SDS011;44763;50.464;30.612;2023-05-29T04:35:08;1.70;;;1.30;;
58978;SDS011;44763;50.464;30.612;2023-05-29T04:37:40;2.60;;;1.20;;
58978;SDS011;44763;50.464;30.612;2023-05-29T04:40:07;3.60;;;1.10;;
58978;SDS011;44763;50.464;30.612;2023-05-29T04:42:36;2.90;;;1.70;;
58978;SDS011;44763;50.464;30.612;2023-05-29T04:45:05;1.90;;;0.90;;
58978;SDS011;44763;50.464;30.612;2023-05-29T04:47:35;3.20;;;1.10;;
58978;SDS011;44763;50.464;30.612;2023-05-29T04:50:03;3.50;;;1.00;;
58978;SDS011;44763;50.464;30.612;2023-05-29T04:52:32;3.80;;;0.70;;
58978;SDS011;44763;50.464;30.612;2023-05-29T04:54:59;1.50;;;1.10;;
58978;SDS011;44763;50.464;30.612;2023-05-29T04:57:27;1.10;;;0.80;;
58978;SDS011;44763;50.464;30.612;2023-05-29T04:59:54;7.30;;;0.90;;
58978;SDS011;44763;50.464;30.612;2023-05-29T05:02:22;0.80;;;0.60;;
58978;SDS011;44763;50.464;30.612;2023-05-29T05:04:49;3.40;;;0.80;;
58978;SDS011;44763;50.464;30.612;2023-05-29T05:07:17;4.20;;;0.80;;
58978;SDS011;44763;50.464;30.612;2023-05-29T05:09:45;5.80;;;1.20;;
58978;SDS011;44763;50.464;30.612;2023-05-29T05:12:18;3.60;;;0.90;;
58978;SDS011;44763;50.464;30.612;2023-05-29T05:14:46;1.40;;;1.00;;
58978;SDS011;44763;50.464;30.612;2023-05-29T05:17:13;1.10;;;1.00;;
58978;SDS011;44763;50.464;30.612;2023-05-29T05:19:41;1.40;;;0.70;;
58978;SDS011;44763;50.464;30.612;2023-05-29T05:22:09;5.70;;;0.90;;
58978;SDS011;44763;50.464;30.612;2023-05-29T05:24:38;2.10;;;0.90;;
58978;SDS011;44763;50.464;30.612;2023-05-29T05:27:05;4.10;;;0.90;;
58978;SDS011;44763;50.464;30.612;2023-05-29T05:29:34;4.30;;;1.00;;
58978;SDS011;44763;50.464;30.612;2023-05-29T05:32:01;1.70;;;1.00;;
58978;SDS011;44763;50.464;30.612;2023-05-29T05:34:28;6.20;;;0.40;;
58978;SDS011;44763;50.464;30.612;2023-05-29T05:36:56;4.20;;;0.30;;
58978;SDS011;44763;50.464;30.612;2023-05-29T05:39:23;1.50;;;0.50;;
58978;SDS011;44763;50.464;30.612;2023-05-29T05:41:51;1.30;;;0.50;;
58978;SDS011;44763;50.464;30.612;2023-05-29T05:44:33;2.60;;;0.50;;
58978;SDS011;44763;50.464;30.612;2023-05-29T05:47:07;2.70;;;0.20;;
58978;SDS011;44763;50.464;30.612;2023-05-29T05:49:35;0.70;;;0.30;;
58978;SDS011;44763;50.464;30.612;2023-05-29T05:52:03;3.20;;;0.20;;
58978;SDS011;44763;50.464;30.612;2023-05-29T05:54:30;1.50;;;0.20;;
58978;SDS011;44763;50.464;30.612;2023-05-29T05:56:58;5.20;;;0.30;;
58978;SDS011;44763;50.464;30.612;2023-05-29T05:59:25;0.70;;;0.20;;
58978;SDS011;44763;50.464;30.612;2023-05-29T06:01:53;5.30;;;0.20;;
58978;SDS011;44763;50.464;30.612;2023-05-29T06:04:20;1.40;;;0.30;;
58978;SDS011;44763;50.464;30.612;2023-05-29T06:06:47;3.10;;;0.30;;
58978;SDS011;44763;50.464;30.612;2023-05-29T06:09:15;5.30;;;0.20;;
58978;SDS011;44763;50.464;30.612;2023-05-29T06:11:43;0.60;;;0.10;;
58978;SDS011;44763;50.464;30.612;2023-05-29T06:14:12;0.50;;;0.20;;
58978;SDS011;44763;50.464;30.612;2023-05-29T06:16:39;2.30;;;0.20;;
58978;SDS011;44763;50.464;30.612;2023-05-29T06:19:08;5.70;;;0.50;;
58978;SDS011;44763;50.464;30.612;2023-05-29T06:21:57;1.50;;;0.10;;
58978;SDS011;44763;50.464;30.612;2023-05-29T06:24:26;1.90;;;0.20;;
58978;SDS011;44763;50.464;30.612;2023-05-29T06:26:54;2.30;;;0.20;;
58978;SDS011;44763;50.464;30.612;2023-05-29T06:29:21;3.80;;;0.30;;
58978;SDS011;44763;50.464;30.612;2023-05-29T06:31:50;1.60;;;0.30;;
58978;SDS011;44763;50.464;30.612;2023-05-29T06:34:18;0.40;;;0.10;;
58978;SDS011;44763;50.464;30.612;2023-05-29T06:36:45;1.00;;;0.30;;
58978;SDS011;44763;50.464;30.612;2023-05-29T06:39:14;3.00;;;0.20;;
58978;SDS011;44763;50.464;30.612;2023-05-29T06:41:45;0.70;;;0.20;;
58978;SDS011;44763;50.464;30.612;2023-05-29T06:44:17;2.70;;;0.10;;
58978;SDS011;44763;50.464;30.612;2023-05-29T06:46:44;0.90;;;0.10;;
58978;SDS011;44763;50.464;30.612;2023-05-29T06:49:12;0.30;;;0.20;;
58978;SDS011;44763;50.464;30.612;2023-05-29T06:51:40;2.70;;;0.20;;
58978;SDS011;44763;50.464;30.612;2023-05-29T06:54:24;0.70;;;0.20;;
58978;SDS011;44763;50.464;30.612;2023-05-29T06:56:51;1.90;;;0.20;;
58978;SDS011;44763;50.464;30.612;2023-05-29T06:59:36;0.50;;;0.20;;
58978;SDS011;44763;50.464;30.612;2023-05-29T07:02:04;1.50;;;0.10;;
58978;SDS011;44763;50.464;30.612;2023-05-29T07:04:32;4.90;;;0.10;;
58978;SDS011;44763;50.464;30.612;2023-05-29T07:07:00;0.40;;;0.10;;
58978;SDS011;44763;50.464;30.612;2023-05-29T07:09:27;2.40;;;0.20;;
58978;SDS011;44763;50.464;30.612;2023-05-29T07:11:55;1.10;;;0.10;;
58978;SDS011;44763;50.464;30.612;2023-05-29T07:14:22;1.00;;;0.10;;
58978;SDS011;44763;50.464;30.612;2023-05-29T07:16:51;1.80;;;0.10;;
58978;SDS011;44763;50.464;30.612;2023-05-29T07:19:18;1.30;;;0.10;;
58978;SDS011;44763;50.464;30.612;2023-05-29T07:21:48;1.20;;;0.30;;
58978;SDS011;44763;50.464;30.612;2023-05-29T07:24:19;3.50;;;0.20;;
58978;SDS011;44763;50.464;30.612;2023-05-29T07:26:50;2.00;;;0.10;;
58978;SDS011;44763;50.464;30.612;2023-05-29T07:29:18;1.20;;;0.10;;
58978;SDS011;44763;50.464;30.612;2023-05-29T07:31:48;0.20;;;0.10;;
58978;SDS011;44763;50.464;30.612;2023-05-29T07:34:23;0.80;;;0.10;;
58978;SDS011;44763;50.464;30.612;2023-05-29T07:37:04;0.40;;;0.30;;
58978;SDS011;44763;50.464;30.612;2023-05-29T07:39:34;1.00;;;0.10;;
58978;SDS011;44763;50.464;30.612;2023-05-29T07:42:10;2.50;;;0.10;;
58978;SDS011;44763;50.464;30.612;2023-05-29T07:44:38;1.30;;;0.60;;
58978;SDS011;44763;50.464;30.612;2023-05-29T07:47:10;1.80;;;0.40;;
58978;SDS011;44763;50.464;30.612;2023-05-29T07:49:41;1.60;;;0.20;;
58978;SDS011;44763;50.464;30.612;2023-05-29T07:52:09;0.50;;;0.20;;
58978;SDS011;44763;50.464;30.612;2023-05-29T07:54:36;4.40;;;0.10;;
58978;SDS011;44763;50.464;30.612;2023-05-29T07:57:04;3.30;;;0.10;;
58978;SDS011;44763;50.464;30.612;2023-05-29T07:59:37;2.50;;;0.30;;
58978;SDS011;44763;50.464;30.612;2023-05-29T08:02:08;1.40;;;0.60;;
58978;SDS011;44763;50.464;30.612;2023-05-29T08:04:42;2.60;;;0.20;;
58978;SDS011;44763;50.464;30.612;2023-05-29T08:07:10;0.90;;;0.60;;
58978;SDS011;44763;50.464;30.612;2023-05-29T08:09:38;5.20;;;0.50;;
58978;SDS011;44763;50.464;30.612;2023-05-29T08:12:05;0.70;;;0.30;;
58978;SDS011;44763;50.464;30.612;2023-05-29T08:14:33;0.50;;;0.20;;
58978;SDS011;44763;50.464;30.612;2023-05-29T08:17:02;1.50;;;0.10;;
58978;SDS011;44763;50.464;30.612;2023-05-29T08:19:29;2.00;;;0.20;;
58978;SDS011;44763;50.464;30.612;2023-05-29T08:21:57;0.60;;;0.20;;
58978;SDS011;44763;50.464;30.612;2023-05-29T08:24:24;3.70;;;0.20;;
58978;SDS011;44763;50.464;30.612;2023-05-29T08:26:51;0.50;;;0.10;;
58978;SDS011;44763;50.464;30.612;2023-05-29T08:29:19;1.80;;;0.40;;
58978;SDS011;44763;50.464;30.612;2023-05-29T08:31:47;1.90;;;0.20;;
58978;SDS011;44763;50.464;30.612;2023-05-29T08:34:14;0.70;;;0.20;;
58978;SDS011;44763;50.464;30.612;2023-05-29T08:36:41;0.90;;;0.20;;
58978;SDS011;44763;50.464;30.612;2023-05-29T08:39:09;2.00;;;0.10;;
58978;SDS011;44763;50.464;30.612;2023-05-29T08:44:16;2.70;;;0.20;;
58978;SDS011;44763;50.464;30.612;2023-05-29T08:46:54;0.60;;;0.20;;
58978;SDS011;44763;50.464;30.612;2023-05-29T08:49:23;0.90;;;0.20;;
58978;SDS011;44763;50.464;30.612;2023-05-29T08:51:55;1.30;;;0.40;;
58978;SDS011;44763;50.464;30.612;2023-05-29T08:54:41;1.10;;;0.10;;
58978;SDS011;44763;50.464;30.612;2023-05-29T08:57:09;2.80;;;0.20;;
58978;SDS011;44763;50.464;30.612;2023-05-29T08:59:39;3.00;;;0.20;;
58978;SDS011;44763;50.464;30.612;2023-05-29T09:02:10;2.40;;;0.10;;
58978;SDS011;44763;50.464;30.612;2023-05-29T09:04:42;0.20;;;0.10;;
58978;SDS011;44763;50.464;30.612;2023-05-29T09:07:15;0.70;;;0.20;;
58978;SDS011;44763;50.464;30.612;2023-05-29T09:09:44;2.20;;;0.10;;
58978;SDS011;44763;50.464;30.612;2023-05-29T09:12:12;0.50;;;0.20;;
58978;SDS011;44763;50.464;30.612;2023-05-29T09:14:41;2.30;;;0.30;;
58978;SDS011;44763;50.464;30.612;2023-05-29T09:17:10;2.60;;;0.10;;
58978;SDS011;44763;50.464;30.612;2023-05-29T09:19:39;2.10;;;0.20;;
58978;SDS011;44763;50.464;30.612;2023-05-29T09:22:10;2.40;;;0.10;;
58978;SDS011;44763;50.464;30.612;2023-05-29T09:24:42;1.60;;;0.20;;
58978;SDS011;44763;50.464;30.612;2023-05-29T09:27:13;0.90;;;0.40;;
58978;SDS011;44763;50.464;30.612;2023-05-29T09:29:41;2.00;;;0.10;;
58978;SDS011;44763;50.464;30.612;2023-05-29T09:32:10;0.80;;;0.20;;
58978;SDS011;44763;50.464;30.612;2023-05-29T09:34:39;1.20;;;0.10;;
58978;SDS011;44763;50.464;30.612;2023-05-29T09:37:09;0.50;;;0.10;;
58978;SDS011;44763;50.464;30.612;2023-05-29T09:42:11;3.30;;;0.20;;
58978;SDS011;44763;50.464;30.612;2023-05-29T09:44:44;2.70;;;0.10;;
58978;SDS011;44763;50.464;30.612;2023-05-29T09:47:14;1.50;;;0.10;;
58978;SDS011;44763;50.464;30.612;2023-05-29T09:49:44;1.70;;;0.20;;
58978;SDS011;44763;50.464;30.612;2023-05-29T09:52:15;3.70;;;0.20;;
58978;SDS011;44763;50.464;30.612;2023-05-29T09:54:49;2.20;;;0.10;;
58978;SDS011;44763;50.464;30.612;2023-05-29T09:57:18;0.80;;;0.10;;
58978;SDS011;44763;50.464;30.612;2023-05-29T09:59:45;1.10;;;0.10;;
58978;SDS011;44763;50.464;30.612;2023-05-29T10:02:18;1.00;;;0.10;;
58978;SDS011;44763;50.464;30.612;2023-05-29T10:04:47;0.50;;;0.20;;
58978;SDS011;44763;50.464;30.612;2023-05-29T10:07:26;2.00;;;0.20;;
58978;SDS011;44763;50.464;30.612;2023-05-29T10:09:58;3.00;;;0.30;;
58978;SDS011;44763;50.464;30.612;2023-05-29T10:12:30;1.00;;;0.10;;
58978;SDS011;44763;50.464;30.612;2023-05-29T10:15:00;1.80;;;0.10;;
58978;SDS011;44763;50.464;30.612;2023-05-29T10:17:31;1.40;;;0.20;;
58978;SDS011;44763;50.464;30.612;2023-05-29T10:20:02;3.60;;;0.10;;
58978;SDS011;44763;50.464;30.612;2023-05-29T10:22:35;2.00;;;0.20;;
58978;SDS011;44763;50.464;30.612;2023-05-29T10:25:09;2.20;;;0.10;;
58978;SDS011;44763;50.464;30.612;2023-05-29T10:27:37;2.90;;;0.20;;
58978;SDS011;44763;50.464;30.612;2023-05-29T10:30:14;0.50;;;0.10;;
58978;SDS011;44763;50.464;30.612;2023-05-29T10:32:55;3.20;;;0.40;;
58978;SDS011;44763;50.464;30.612;2023-05-29T10:35:51;4.20;;;0.60;;
58978;SDS011;44763;50.464;30.612;2023-05-29T10:38:23;1.30;;;0.10;;
58978;SDS011;44763;50.464;30.612;2023-05-29T10:40:52;1.30;;;0.30;;
58978;SDS011;44763;50.464;30.612;2023-05-29T10:43:32;2.00;;;0.20;;
58978;SDS011;44763;50.464;30.612;2023-05-29T10:46:01;1.40;;;0.20;;
58978;SDS011;44763;50.464;30.612;2023-05-29T10:48:36;2.50;;;0.30;;
58978;SDS011;44763;50.464;30.612;2023-05-29T10:51:07;3.10;;;0.10;;
58978;SDS011;44763;50.464;30.612;2023-05-29T10:53:35;1.70;;;0.20;;
58978;SDS011;44763;50.464;30.612;2023-05-29T10:56:08;4.00;;;0.10;;
58978;SDS011;44763;50.464;30.612;2023-05-29T10:58:38;2.40;;;0.10;;
58978;SDS011;44763;50.464;30.612;2023-05-29T11:06:52;1.60;;;0.10;;
58978;SDS011;44763;50.464;30.612;2023-05-29T11:12:13;0.90;;;0.20;;
58978;SDS011;44763;50.464;30.612;2023-05-29T11:20:05;1.00;;;0.20;;
58978;SDS011;44763;50.464;30.612;2023-05-29T11:22:51;2.00;;;0.10;;
58978;SDS011;44763;50.464;30.612;2023-05-29T11:25:36;1.70;;;0.30;;
58978;SDS011;44763;50.464;30.612;2023-05-29T11:28:04;0.60;;;0.10;;
58978;SDS011;44763;50.464;30.612;2023-05-29T11:30:43;1.60;;;0.10;;
58978;SDS011;44763;50.464;30.612;2023-05-29T11:33:19;1.20;;;0.10;;
58978;SDS011;44763;50.464;30.612;2023-05-29T11:35:55;4.90;;;0.10;;
58978;SDS011;44763;50.464;30.612;2023-05-29T11:38:24;0.60;;;0.10;;
58978;SDS011;44763;50.464;30.612;2023-05-29T11:40:56;1.10;;;0.30;;
58978;SDS011;44763;50.464;30.612;2023-05-29T11:43:25;0.20;;;0.10;;
58978;SDS011;44763;50.464;30.612;2023-05-29T11:45:53;2.50;;;0.10;;
58978;SDS011;44763;50.464;30.612;2023-05-29T11:48:20;1.60;;;0.10;;
58978;SDS011;44763;50.464;30.612;2023-05-29T11:50:49;2.60;;;0.30;;
58978;SDS011;44763;50.464;30.612;2023-05-29T11:53:17;0.60;;;0.10;;
58978;SDS011;44763;50.464;30.612;2023-05-29T11:55:44;0.70;;;0.10;;
58978;SDS011;44763;50.464;30.612;2023-05-29T11:58:11;0.30;;;0.20;;
58978;SDS011;44763;50.464;30.612;2023-05-29T12:00:39;2.60;;;0.10;;
58978;SDS011;44763;50.464;30.612;2023-05-29T12:03:10;2.60;;;0.10;;
58978;SDS011;44763;50.464;30.612;2023-05-29T12:05:45;2.30;;;0.40;;
58978;SDS011;44763;50.464;30.612;2023-05-29T12:08:16;2.40;;;0.10;;
58978;SDS011;44763;50.464;30.612;2023-05-29T12:10:48;2.20;;;0.30;;
58978;SDS011;44763;50.464;30.612;2023-05-29T12:13:15;1.50;;;0.10;;
58978;SDS011;44763;50.464;30.612;2023-05-29T12:15:45;1.00;;;0.10;;
58978;SDS011;44763;50.464;30.612;2023-05-29T12:18:15;0.70;;;0.30;;
58978;SDS011;44763;50.464;30.612;2023-05-29T12:20:42;8.10;;;1.00;;
58978;SDS011;44763;50.464;30.612;2023-05-29T12:23:10;13.70;;;0.50;;
58978;SDS011;44763;50.464;30.612;2023-05-29T12:25:39;0.70;;;0.30;;
58978;SDS011;44763;50.464;30.612;2023-05-29T12:28:07;1.30;;;0.20;;
58978;SDS011;44763;50.464;30.612;2023-05-29T12:30:38;3.50;;;0.20;;
58978;SDS011;44763;50.464;30.612;2023-05-29T12:33:06;0.90;;;0.20;;
58978;SDS011;44763;50.464;30.612;2023-05-29T12:35:34;0.80;;;0.20;;
58978;SDS011;44763;50.464;30.612;2023-05-29T12:38:02;0.70;;;0.10;;
58978;SDS011;44763;50.464;30.612;2023-05-29T12:40:32;1.90;;;0.10;;
58978;SDS011;44763;50.464;30.612;2023-05-29T12:43:06;1.80;;;0.10;;
58978;SDS011;44763;50.464;30.612;2023-05-29T12:45:37;1.00;;;0.10;;
58978;SDS011;44763;50.464;30.612;2023-05-29T12:48:05;2.20;;;0.10;;
58978;SDS011;44763;50.464;30.612;2023-05-29T12:50:34;1.00;;;0.30;;
58978;SDS011;44763;50.464;30.612;2023-05-29T12:53:05;0.80;;;0.10;;
58978;SDS011;44763;50.464;30.612;2023-05-29T12:55:38;3.70;;;0.20;;
58978;SDS011;44763;50.464;30.612;2023-05-29T12:58:08;1.80;;;0.10;;
58978;SDS011;44763;50.464;30.612;2023-05-29T13:00:37;1.60;;;0.10;;
58978;SDS011;44763;50.464;30.612;2023-05-29T13:03:06;0.70;;;0.20;;
58978;SDS011;44763;50.464;30.612;2023-05-29T13:05:34;0.10;;;0.10;;
58978;SDS011;44763;50.464;30.612;2023-05-29T13:08:05;0.10;;;0.10;;
58978;SDS011;44763;50.464;30.612;2023-05-29T13:10:35;2.80;;;0.20;;
58978;SDS011;44763;50.464;30.612;2023-05-29T13:13:02;0.50;;;0.10;;
58978;SDS011;44763;50.464;30.612;2023-05-29T13:15:30;2.00;;;0.10;;
58978;SDS011;44763;50.464;30.612;2023-05-29T13:18:00;0.40;;;0.10;;
58978;SDS011;44763;50.464;30.612;2023-05-29T13:20:28;0.90;;;0.20;;
58978;SDS011;44763;50.464;30.612;2023-05-29T13:22:55;1.20;;;0.10;;
58978;SDS011;44763;50.464;30.612;2023-05-29T13:25:23;1.40;;;0.20;;
58978;SDS011;44763;50.464;30.612;2023-05-29T13:27:52;4.50;;;0.30;;
58978;SDS011;44763;50.464;30.612;2023-05-29T13:30:20;2.20;;;0.30;;
58978;SDS011;44763;50.464;30.612;2023-05-29T13:32:50;0.40;;;0.10;;
58978;SDS011;44763;50.464;30.612;2023-05-29T13:35:19;3.70;;;0.10;;
58978;SDS011;44763;50.464;30.612;2023-05-29T13:37:47;4.60;;;0.10;;
58978;SDS011;44763;50.464;30.612;2023-05-29T13:40:14;1.70;;;0.30;;
58978;SDS011;44763;50.464;30.612;2023-05-29T13:42:41;2.30;;;0.30;;
58978;SDS011;44763;50.464;30.612;2023-05-29T13:45:09;1.00;;;0.10;;
58978;SDS011;44763;50.464;30.612;2023-05-29T13:47:36;1.00;;;0.10;;
58978;SDS011;44763;50.464;30.612;2023-05-29T13:50:04;0.10;;;0.10;;
58978;SDS011;44763;50.464;30.612;2023-05-29T13:52:32;1.80;;;0.20;;
58978;SDS011;44763;50.464;30.612;2023-05-29T13:55:00;1.00;;;0.10;;
58978;SDS011;44763;50.464;30.612;2023-05-29T13:57:33;6.70;;;0.40;;
58978;SDS011;44763;50.464;30.612;2023-05-29T14:00:01;1.90;;;0.20;;
58978;SDS011;44763;50.464;30.612;2023-05-29T14:02:31;0.90;;;0.10;;
58978;SDS011;44763;50.464;30.612;2023-05-29T14:04:58;0.10;;;0.10;;
58978;SDS011;44763;50.464;30.612;2023-05-29T14:07:26;1.90;;;0.10;;
58978;SDS011;44763;50.464;30.612;2023-05-29T14:09:53;1.50;;;0.10;;
58978;SDS011;44763;50.464;30.612;2023-05-29T14:12:20;2.40;;;0.60;;
58978;SDS011;44763;50.464;30.612;2023-05-29T14:14:48;2.10;;;0.10;;
58978;SDS011;44763;50.464;30.612;2023-05-29T14:17:15;1.60;;;0.10;;
58978;SDS011;44763;50.464;30.612;2023-05-29T14:19:43;0.60;;;0.10;;
58978;SDS011;44763;50.464;30.612;2023-05-29T14:22:13;0.70;;;0.30;;
58978;SDS011;44763;50.464;30.612;2023-05-29T14:24:40;0.60;;;0.20;;
58978;SDS011;44763;50.464;30.612;2023-05-29T14:27:08;1.70;;;0.10;;
58978;SDS011;44763;50.464;30.612;2023-05-29T14:29:35;0.20;;;0.10;;
58978;SDS011;44763;50.464;30.612;2023-05-29T14:32:03;0.20;;;0.10;;
58978;SDS011;44763;50.464;30.612;2023-05-29T14:34:31;2.30;;;0.10;;
58978;SDS011;44763;50.464;30.612;2023-05-29T14:36:58;2.50;;;0.10;;
58978;SDS011;44763;50.464;30.612;2023-05-29T14:39:25;1.70;;;0.10;;
58978;SDS011;44763;50.464;30.612;2023-05-29T14:41:53;1.40;;;0.20;;
58978;SDS011;44763;50.464;30.612;2023-05-29T14:44:20;0.60;;;0.10;;
58978;SDS011;44763;50.464;30.612;2023-05-29T14:46:48;4.90;;;0.20;;
58978;SDS011;44763;50.464;30.612;2023-05-29T14:49:15;0.70;;;0.10;;
58978;SDS011;44763;50.464;30.612;2023-05-29T14:51:42;1.20;;;0.10;;
58978;SDS011;44763;50.464;30.612;2023-05-29T14:54:11;1.20;;;0.30;;
58978;SDS011;44763;50.464;30.612;2023-05-29T14:56:39;2.90;;;0.10;;
58978;SDS011;44763;50.464;30.612;2023-05-29T14:59:06;0.20;;;0.10;;
58978;SDS011;44763;50.464;30.612;2023-05-29T15:01:33;1.00;;;0.10;;
58978;SDS011;44763;50.464;30.612;2023-05-29T15:04:01;2.00;;;0.10;;
58978;SDS011;44763;50.464;30.612;2023-05-29T15:06:31;2.30;;;0.10;;
58978;SDS011;44763;50.464;30.612;2023-05-29T15:09:00;1.60;;;0.10;;